createdAt,value
2023-07-11T00:00:24.261Z,100197.85
2023-07-11T00:04:08.262Z,100198.47
2023-07-11T00:07:12.452Z,100202.83
2023-07-11T00:10:19.422Z,100209.53
2023-07-11T00:13:23.480Z,100214.38
2023-07-11T00:16:27.769Z,100215.05
2023-07-11T00:19:47.242Z,100220.30
2023-07-11T00:22:51.320Z,100232.23
2023-07-11T00:25:55.323Z,100246.20
2023-07-11T00:29:19.743Z,100253.11
2023-07-11T00:32:24.072Z,100254.15
2023-07-11T00:35:28.079Z,100247.20
2023-07-11T00:38:32.116Z,100236.39
2023-07-11T00:41:36.234Z,100227.45
2023-07-11T00:44:59.003Z,100211.55
2023-07-11T00:48:03.395Z,100198.96
2023-07-11T00:51:10.506Z,100195.48
2023-07-11T00:54:17.879Z,100199.89
2023-07-11T00:57:24.675Z,100197.17
2023-07-11T01:00:28.752Z,100192.89
2023-07-11T01:03:33.783Z,100188.90
2023-07-11T01:06:37.931Z,100186.25
2023-07-11T01:09:41.934Z,100178.02
2023-07-11T01:12:48.119Z,100174.43
2023-07-11T01:15:52.069Z,100166.38
2023-07-11T01:18:56.028Z,100156.89
2023-07-11T01:22:01.373Z,100151.09
2023-07-11T01:25:11.343Z,100142.94
2023-07-11T01:28:15.370Z,100136.05
2023-07-11T01:31:19.751Z,100129.58
2023-07-11T01:34:23.782Z,100129.22
2023-07-11T01:37:27.918Z,100122.59
2023-07-11T01:40:31.904Z,100118.43
2023-07-11T01:43:36.608Z,100125.50
2023-07-11T01:46:42.378Z,100132.35
2023-07-11T01:49:46.681Z,100132.45
2023-07-11T01:52:50.775Z,100130.59
2023-07-11T01:55:56.688Z,100135.64
2023-07-11T01:59:00.681Z,100137.98
2023-07-11T02:02:06.360Z,100142.73
2023-07-11T02:05:10.466Z,100156.38
2023-07-11T02:08:14.665Z,100158.46
2023-07-11T02:11:19.023Z,100157.20
2023-07-11T02:14:23.372Z,100160.94
2023-07-11T02:17:27.640Z,100161.75
2023-07-11T02:20:32.574Z,100166.93
2023-07-11T02:23:36.666Z,100175.09
2023-07-11T02:26:41.152Z,100176.52
2023-07-11T02:29:45.159Z,100175.16
2023-07-11T02:32:49.271Z,100163.19
2023-07-11T02:35:53.402Z,100153.51
2023-07-11T02:38:57.538Z,100145.08
2023-07-11T02:42:01.471Z,100146.30
2023-07-11T02:45:06.369Z,100153.38
2023-07-11T02:48:10.511Z,100158.21
2023-07-11T02:51:14.846Z,100161.41
2023-07-11T02:54:18.903Z,100162.05
2023-07-11T02:57:22.969Z,100164.83
2023-07-11T03:00:26.955Z,100173.09
2023-07-11T03:03:31.332Z,100168.92
2023-07-11T03:06:35.349Z,100169.77
2023-07-11T03:09:40.222Z,100164.44
2023-07-11T03:12:44.234Z,100167.34
2023-07-11T03:15:48.228Z,100166.23
2023-07-11T03:18:52.278Z,100163.72
2023-07-11T03:21:56.255Z,100178.09
2023-07-11T03:25:00.213Z,100182.55
2023-07-11T03:28:05.191Z,100182.42
2023-07-11T03:31:10.558Z,100177.43
2023-07-11T03:34:15.011Z,100177.02
2023-07-11T03:37:19.009Z,100194.92
2023-07-11T03:40:23.105Z,100204.13
2023-07-11T03:43:27.164Z,100204.69
2023-07-11T03:46:31.276Z,100207.00
2023-07-11T03:49:35.952Z,100214.13
2023-07-11T03:52:39.935Z,100216.29
2023-07-11T03:55:44.436Z,100227.33
2023-07-11T03:58:48.372Z,100229.54
2023-07-11T04:01:52.373Z,100225.41
2023-07-11T04:04:56.344Z,100226.08
2023-07-11T04:08:00.375Z,100220.63
2023-07-11T04:11:04.812Z,100224.30
2023-07-11T04:14:11.395Z,100230.45
2023-07-11T04:17:15.402Z,100239.33
2023-07-11T04:20:19.377Z,100237.43
2023-07-11T04:23:23.532Z,100242.36
2023-07-11T04:26:27.738Z,100248.06
2023-07-11T04:29:31.768Z,100245.54
2023-07-11T04:32:36.887Z,100261.45
2023-07-11T04:35:41.543Z,100267.22
2023-07-11T04:38:45.963Z,100276.08
2023-07-11T04:41:50.276Z,100280.56
2023-07-11T04:44:54.320Z,100283.74
2023-07-11T04:47:58.335Z,100285.93
2023-07-11T04:51:05.817Z,100294.25
2023-07-11T04:54:10.020Z,100286.73
2023-07-11T04:57:14.137Z,100284.25
2023-07-11T05:00:18.367Z,100284.09
2023-07-11T05:03:22.335Z,100284.89
2023-07-11T05:06:28.045Z,100290.18
2023-07-11T05:09:32.281Z,100292.25
2023-07-11T05:12:36.208Z,100300.77
2023-07-11T05:15:40.288Z,100310.87
2023-07-11T05:18:45.870Z,100309.31
2023-07-11T05:21:50.294Z,100310.21
2023-07-11T05:24:54.731Z,100303.80
2023-07-11T05:27:58.787Z,100304.08
2023-07-11T05:31:05.716Z,100298.23
2023-07-11T05:34:11.834Z,100295.89
2023-07-11T05:37:15.805Z,100301.49
2023-07-11T05:40:19.882Z,100294.94
2023-07-11T05:43:23.855Z,100296.69
2023-07-11T05:46:28.675Z,100300.67
2023-07-11T05:49:32.828Z,100296.03
2023-07-11T05:52:36.863Z,100290.14
2023-07-11T05:55:41.627Z,100282.38
2023-07-11T05:58:47.624Z,100282.34
2023-07-11T06:01:52.597Z,100283.87
2023-07-11T06:04:56.765Z,100282.08
2023-07-11T06:08:01.494Z,100281.99
2023-07-11T06:11:06.770Z,100283.61
2023-07-11T06:14:11.362Z,100287.19
2023-07-11T06:17:15.487Z,100287.08
2023-07-11T06:20:19.506Z,100288.50
2023-07-11T06:23:23.481Z,100292.73
2023-07-11T06:26:27.871Z,100295.04
2023-07-11T06:29:32.227Z,100298.73
2023-07-11T06:32:36.240Z,100305.44
2023-07-11T06:35:42.424Z,100303.98
2023-07-11T06:38:46.431Z,100312.81
2023-07-11T06:41:50.625Z,100318.45
2023-07-11T06:44:57.429Z,100326.41
2023-07-11T06:48:01.443Z,100325.03
2023-07-11T06:51:06.318Z,100328.73
2023-07-11T06:54:10.953Z,100331.86
2023-07-11T06:57:15.732Z,100328.59
2023-07-11T07:00:20.054Z,100327.17
2023-07-11T07:03:24.705Z,100325.73
2023-07-11T07:06:29.158Z,100326.35
2023-07-11T07:09:33.288Z,100330.28
2023-07-11T07:12:37.365Z,100331.27
2023-07-11T07:15:42.656Z,100331.91
2023-07-11T07:18:47.803Z,100339.43
2023-07-11T07:21:51.895Z,100345.04
2023-07-11T07:24:55.908Z,100343.67
2023-07-11T07:28:00.001Z,100342.02
2023-07-11T07:31:07.263Z,100344.32
2023-07-11T07:34:11.706Z,100347.02
2023-07-11T07:37:15.730Z,100353.23
2023-07-11T07:40:19.729Z,100350.64
2023-07-11T07:43:23.796Z,100351.95
2023-07-11T07:46:27.968Z,100355.77
2023-07-11T07:49:41.922Z,100354.20
2023-07-11T07:52:53.709Z,100353.77
2023-07-11T07:56:06.471Z,100353.17
2023-07-11T07:59:10.704Z,100358.50
2023-07-11T08:02:14.690Z,100366.83
2023-07-11T08:05:19.458Z,100367.41
2023-07-11T08:08:23.831Z,100369.95
2023-07-11T08:11:27.906Z,100376.98
2023-07-11T08:14:37.891Z,100378.94
2023-07-11T08:17:47.198Z,100382.08
2023-07-11T08:20:51.489Z,100386.42
2023-07-11T08:23:55.711Z,100385.09
2023-07-11T08:27:00.357Z,100394.73
2023-07-11T08:30:05.705Z,100394.75
2023-07-11T08:33:10.440Z,100399.58
2023-07-11T08:36:16.266Z,100396.27
2023-07-11T08:39:20.730Z,100401.68
2023-07-11T08:42:36.994Z,100404.05
2023-07-11T08:46:10.782Z,100402.69
2023-07-11T08:49:24.383Z,100410.95
2023-07-11T08:52:32.160Z,100410.27
2023-07-11T08:55:42.780Z,100415.33
2023-07-11T08:58:50.540Z,100420.15
2023-07-11T09:02:21.093Z,100423.77
2023-07-11T09:05:43.538Z,100427.38
2023-07-11T09:08:55.418Z,100426.41
2023-07-11T09:12:27.780Z,100429.93
2023-07-11T09:16:01.167Z,100437.58
2023-07-11T09:19:23.372Z,100443.88
2023-07-11T09:22:44.306Z,100446.28
2023-07-11T09:25:49.562Z,100452.23
2023-07-11T09:29:04.965Z,100453.42
2023-07-11T09:32:12.733Z,100449.98
2023-07-11T09:35:28.350Z,100442.52
2023-07-11T09:38:36.616Z,100440.71
2023-07-11T09:42:02.593Z,100446.79
2023-07-11T09:45:18.347Z,100452.99
2023-07-11T09:48:37.686Z,100453.38
2023-07-11T09:51:49.766Z,100452.05
2023-07-11T09:55:07.271Z,100451.62
2023-07-11T09:58:17.563Z,100445.30
2023-07-11T10:01:33.064Z,100437.12
2023-07-11T10:04:44.265Z,100430.73
2023-07-11T10:08:02.068Z,100427.07
2023-07-11T10:11:12.678Z,100426.01
2023-07-11T10:14:19.297Z,100427.45
2023-07-11T10:17:26.651Z,100425.61
2023-07-11T10:20:32.357Z,100424.82
2023-07-11T10:23:38.241Z,100426.50
2023-07-11T10:26:42.853Z,100422.81
2023-07-11T10:29:51.444Z,100422.79
2023-07-11T10:33:08.422Z,100424.30
2023-07-11T10:36:31.893Z,100422.13
2023-07-11T10:39:51.743Z,100419.60
2023-07-11T10:43:04.435Z,100414.81
2023-07-11T10:46:38.155Z,100408.84
2023-07-11T10:49:46.910Z,100408.68
2023-07-11T10:52:54.925Z,100403.58
2023-07-11T10:56:07.476Z,100401.38
2023-07-11T10:59:17.898Z,100396.92
2023-07-11T11:02:24.262Z,100396.06
2023-07-11T11:05:41.201Z,100397.02
2023-07-11T11:08:54.384Z,100394.64
2023-07-11T11:12:17.335Z,100394.65
2023-07-11T11:15:31.553Z,100399.97
2023-07-11T11:18:57.659Z,100400.14
2023-07-11T11:22:25.441Z,100394.28
2023-07-11T11:25:49.082Z,100393.16
2023-07-11T11:29:17.153Z,100393.64
2023-07-11T11:32:33.480Z,100390.00
2023-07-11T11:36:09.517Z,100398.24
2023-07-11T11:39:32.490Z,100398.52
2023-07-11T11:42:39.878Z,100390.77
2023-07-11T11:52:07.613Z,100380.73
2023-07-11T11:55:34.966Z,100378.83
2023-07-11T11:58:51.019Z,100380.30
2023-07-11T12:01:55.085Z,100377.09
2023-07-11T12:05:07.726Z,100368.67
2023-07-11T12:08:30.570Z,100367.23
2023-07-11T12:11:34.577Z,100362.80
2023-07-11T12:14:59.476Z,100362.38
2023-07-11T12:18:28.650Z,100363.64
2023-07-11T12:21:44.571Z,100362.83
2023-07-11T12:25:01.166Z,100363.29
2023-07-11T12:28:05.316Z,100355.75
2023-07-11T12:31:17.593Z,100354.15
2023-07-11T12:34:21.699Z,100348.29
2023-07-11T12:37:27.890Z,100348.02
2023-07-11T12:40:40.710Z,100341.21
2023-07-11T12:43:48.405Z,100341.05
2023-07-11T12:46:53.540Z,100345.96
2023-07-11T12:49:58.428Z,100346.86
2023-07-11T12:53:04.883Z,100351.50
2023-07-11T12:56:15.059Z,100350.23
2023-07-11T12:59:29.753Z,100350.45
2023-07-11T13:02:34.109Z,100350.16
2023-07-11T13:05:38.276Z,100348.02
2023-07-11T13:08:42.373Z,100346.02
2023-07-11T13:11:46.475Z,100341.76
2023-07-11T13:14:51.867Z,100341.90
2023-07-11T13:17:56.508Z,100343.67
2023-07-11T13:21:03.051Z,100345.10
2023-07-11T13:24:13.765Z,100345.61
2023-07-11T13:27:22.753Z,100344.67
2023-07-11T13:30:36.670Z,100339.73
2023-07-11T13:33:43.563Z,100342.21
2023-07-11T13:36:51.395Z,100339.56
2023-07-11T13:39:56.534Z,100335.14
2023-07-11T13:43:01.788Z,100335.46
2023-07-11T13:46:05.971Z,100332.02
2023-07-11T13:49:17.798Z,100332.77
2023-07-11T13:52:35.236Z,100329.61
2023-07-11T13:55:40.870Z,100326.36
2023-07-11T13:58:49.503Z,100320.70
2023-07-11T14:01:53.867Z,100314.92
2023-07-11T14:04:57.950Z,100309.17
2023-07-11T14:08:02.461Z,100303.27
2023-07-11T14:11:15.100Z,100309.48
2023-07-11T14:14:33.643Z,100311.69
2023-07-11T14:17:44.173Z,100300.27
2023-07-11T14:20:48.404Z,100307.67
2023-07-11T14:23:52.294Z,100308.39
2023-07-11T14:26:56.849Z,100304.70
2023-07-11T14:30:00.995Z,100302.96
2023-07-11T14:33:09.672Z,100303.68
2023-07-11T14:36:13.700Z,100297.96
2023-07-11T14:39:19.330Z,100299.45
2023-07-11T14:42:31.625Z,100303.70
2023-07-11T14:45:35.767Z,100298.08
2023-07-11T14:48:39.776Z,100299.20
2023-07-11T14:51:44.105Z,100290.10
2023-07-11T14:58:10.594Z,100292.79
2023-07-11T15:01:15.483Z,100285.20
2023-07-11T15:10:34.068Z,100286.06
2023-07-11T15:16:47.316Z,100286.63
2023-07-11T15:19:51.408Z,100287.34
2023-07-11T15:22:56.793Z,100285.58
2023-07-11T15:26:00.750Z,100282.41
2023-07-11T15:29:10.336Z,100280.86
2023-07-11T15:32:24.972Z,100277.27
2023-07-11T15:35:30.387Z,100276.57
2023-07-11T15:38:34.352Z,100275.06
2023-07-11T15:41:38.371Z,100277.42
2023-07-11T15:44:48.647Z,100277.18
2023-07-11T15:47:53.320Z,100272.30
2023-07-11T15:50:57.726Z,100273.55
2023-07-11T15:54:01.929Z,100269.84
2023-07-11T15:57:19.649Z,100268.70
2023-07-11T16:00:28.368Z,100267.40
2023-07-11T16:03:32.624Z,100266.27
2023-07-11T16:06:36.792Z,100267.55
2023-07-11T16:09:41.168Z,100270.78
2023-07-11T16:12:46.317Z,100277.39
2023-07-11T16:15:52.040Z,100277.45
2023-07-11T16:18:56.054Z,100275.06
2023-07-11T16:22:00.194Z,100276.23
2023-07-11T16:25:09.814Z,100278.20
2023-07-11T16:28:27.714Z,100273.56
2023-07-11T16:31:32.193Z,100274.38
2023-07-11T16:34:36.512Z,100272.70
2023-07-11T16:37:42.455Z,100268.77
2023-07-11T16:40:47.953Z,100272.74
2023-07-11T16:43:52.583Z,100265.49
2023-07-11T16:46:56.595Z,100261.64
2023-07-11T16:50:00.714Z,100259.55
2023-07-11T16:53:20.115Z,100260.23
2023-07-11T16:56:24.124Z,100257.19
2023-07-11T16:59:28.641Z,100256.26
2023-07-11T17:02:34.593Z,100252.70
2023-07-11T17:05:39.718Z,100256.53
2023-07-11T17:08:43.731Z,100259.73
2023-07-11T17:11:49.586Z,100258.55
2023-07-11T17:14:53.813Z,100261.65
2023-07-11T17:17:58.813Z,100260.38
2023-07-11T17:21:02.946Z,100254.59
2023-07-11T17:24:20.864Z,100255.27
2023-07-11T17:27:30.388Z,100256.43
2023-07-11T17:30:34.473Z,100256.89
2023-07-11T17:33:38.435Z,100252.00
2023-07-11T17:36:47.830Z,100253.48
2023-07-11T17:39:51.993Z,100254.02
2023-07-11T17:42:56.000Z,100247.67
2023-07-11T17:46:35.385Z,100252.47
2023-07-11T17:49:24.824Z,100256.21
2023-07-11T17:52:31.228Z,100259.77
2023-07-11T17:55:35.905Z,100257.14
2023-07-11T17:58:40.228Z,100256.20
2023-07-11T18:01:44.567Z,100254.45
2023-07-11T18:04:50.857Z,100252.46
2023-07-11T18:07:54.846Z,100255.62
2023-07-11T18:10:58.772Z,100256.45
2023-07-11T18:14:04.526Z,100251.45
2023-07-11T18:17:18.248Z,100248.45
2023-07-11T18:20:23.939Z,100251.13
2023-07-11T18:23:28.889Z,100251.93
2023-07-11T18:26:32.859Z,100248.70
2023-07-11T18:29:36.870Z,100245.80
2023-07-11T18:32:42.979Z,100248.63
2023-07-11T18:35:49.858Z,100249.01
2023-07-11T18:38:55.260Z,100251.33
2023-07-11T18:41:59.556Z,100251.89
2023-07-11T18:45:05.432Z,100255.62
2023-07-11T18:48:12.269Z,100259.36
2023-07-11T18:51:17.150Z,100257.98
2023-07-11T18:54:24.239Z,100261.88
2023-07-11T18:57:30.005Z,100258.23
2023-07-11T19:00:37.403Z,100258.91
2023-07-11T19:03:44.115Z,100261.27
2023-07-11T19:06:55.677Z,100261.39
2023-07-11T19:10:02.493Z,100264.44
2023-07-11T19:13:08.950Z,100267.75
2023-07-11T19:16:22.719Z,100269.55
2023-07-11T19:19:28.572Z,100269.80
2023-07-11T19:22:37.812Z,100270.36
2023-07-11T19:25:47.796Z,100274.21
2023-07-11T19:28:51.990Z,100270.92
2023-07-11T19:31:58.954Z,100272.38
2023-07-11T19:35:03.007Z,100271.21
2023-07-11T19:38:27.782Z,100270.27
2023-07-11T19:41:31.765Z,100275.47
2023-07-11T19:44:35.736Z,100275.80
2023-07-11T19:47:40.153Z,100277.25
2023-07-11T19:50:47.314Z,100277.80
2023-07-11T19:53:51.400Z,100275.61
2023-07-11T19:56:55.364Z,100274.73
2023-07-11T19:59:59.345Z,100270.64
2023-07-11T20:03:06.699Z,100269.65
2023-07-11T20:06:18.472Z,100271.31
2023-07-11T20:09:22.541Z,100272.38
2023-07-11T20:12:31.864Z,100274.29
2023-07-11T20:15:40.526Z,100274.92
2023-07-11T20:18:44.793Z,100275.29
2023-07-11T20:21:49.096Z,100275.08
2023-07-11T20:24:53.189Z,100279.55
2023-07-11T20:28:16.849Z,100272.83
2023-07-11T20:31:23.762Z,100279.23
2023-07-11T20:34:28.570Z,100278.65
2023-07-11T20:37:34.101Z,100278.89
2023-07-11T20:40:42.783Z,100276.77
2023-07-11T20:43:51.716Z,100275.02
2023-07-11T20:46:56.320Z,100273.85
2023-07-11T20:50:16.038Z,100272.73
2023-07-11T20:53:22.845Z,100273.60
2023-07-11T20:56:32.754Z,100275.61
2023-07-11T20:59:53.118Z,100274.21
2023-07-11T21:03:02.612Z,100272.14
2023-07-11T21:06:21.320Z,100275.13
2023-07-11T21:09:26.905Z,100272.59
2023-07-11T21:12:35.400Z,100268.73
2023-07-11T21:15:41.701Z,100272.39
2023-07-11T21:18:47.857Z,100269.24
2023-07-11T21:21:52.790Z,100270.29
2023-07-11T21:24:59.810Z,100265.18
2023-07-11T21:28:05.050Z,100267.79
2023-07-11T21:31:12.083Z,100264.89
2023-07-11T21:34:17.039Z,100266.23
2023-07-11T21:37:21.018Z,100268.70
2023-07-11T21:40:32.559Z,100271.16
2023-07-11T21:43:36.640Z,100265.63
2023-07-11T21:46:40.904Z,100260.08
2023-07-11T21:49:45.008Z,100258.67
2023-07-11T21:52:50.031Z,100248.06
2023-07-11T21:56:13.531Z,100246.72
2023-07-11T21:59:21.936Z,100246.11
2023-07-11T22:02:26.380Z,100245.58
2023-07-11T22:05:30.492Z,100243.69
2023-07-11T22:09:12.266Z,100237.50
2023-07-11T22:12:16.304Z,100235.27
2023-07-11T22:15:20.712Z,100231.38
2023-07-11T22:18:26.791Z,100229.96
2023-07-11T22:21:30.999Z,100226.04
2023-07-11T22:24:37.586Z,100225.64
2023-07-11T22:27:42.349Z,100220.13
2023-07-11T22:30:48.211Z,100214.54
2023-07-11T22:33:52.673Z,100212.63
2023-07-11T22:36:56.604Z,100207.63
2023-07-11T22:40:00.721Z,100202.17
2023-07-11T22:43:13.794Z,100198.09
2023-07-11T22:46:21.530Z,100194.58
2023-07-11T22:49:25.615Z,100186.41
2023-07-11T22:52:29.590Z,100185.39
2023-07-11T22:55:37.321Z,100182.13
2023-07-11T22:58:41.294Z,100177.90
2023-07-11T23:01:45.337Z,100174.33
2023-07-11T23:04:49.485Z,100173.84
2023-07-11T23:07:53.932Z,100173.93
2023-07-11T23:11:00.485Z,100171.24
2023-07-11T23:14:04.503Z,100165.79
2023-07-11T23:17:09.513Z,100163.38
2023-07-11T23:20:14.459Z,100165.27
2023-07-11T23:23:29.766Z,100162.49
2023-07-11T23:26:33.836Z,100163.52
2023-07-11T23:29:37.826Z,100162.11
2023-07-11T23:32:41.834Z,100162.48
2023-07-11T23:35:47.315Z,100152.86
2023-07-11T23:38:53.915Z,100149.05
2023-07-11T23:41:58.094Z,100153.80
2023-07-11T23:45:02.226Z,100147.86
2023-07-11T23:48:22.604Z,100148.39
2023-07-11T23:51:29.049Z,100141.27
2023-07-11T23:54:33.372Z,100149.69
2023-07-11T23:57:37.364Z,100153.41
